Time;durP1;ratioP1;P1;durP2;ratioP2;P2;SDS_P1;SDS_P2;PMS_P1;PMS_P2;Temp;Humidity;BMP_temperature;BMP_pressure;BME280_temperature;BME280_humidity;BME280_pressure;Samples;Min_cycle;Max_cycle;Signal;HPM_P1;HPM_P2
2021/05/27 00:01:34;;;;;;;5.10;4.80;;;;;;;9.71;85.03;99884.78;5081456;28;20742;-76
2021/05/27 00:04:00;;;;;;;4.60;4.30;;;;;;;9.84;84.18;99881.88;5081052;28;20213;-75
2021/05/27 00:06:25;;;;;;;4.03;3.73;;;;;;;9.83;83.56;99881.03;5082120;28;20652;-76
2021/05/27 00:08:51;;;;;;;3.83;3.63;;;;;;;9.86;83.29;99888.75;5081307;28;20667;-76
2021/05/27 00:11:17;;;;;;;4.00;3.80;;;;;;;9.83;83.55;99885.38;5082401;28;20747;-76
2021/05/27 00:13:44;;;;;;;4.03;3.73;;;;;;;9.70;83.53;99885.69;5081528;28;20240;-76
2021/05/27 00:16:10;;;;;;;4.60;4.30;;;;;;;9.62;83.96;99892.81;5085241;28;20579;-74
2021/05/27 00:18:36;;;;;;;4.67;4.37;;;;;;;9.47;84.61;99890.56;5085061;28;20282;-76
2021/05/27 00:21:02;;;;;;;4.20;3.90;;;;;;;9.57;84.68;99893.81;5084512;28;20223;-76
2021/05/27 00:23:28;;;;;;;4.40;4.10;;;;;;;9.53;85.03;99885.22;5084754;28;20281;-74
2021/05/27 00:25:53;;;;;;;4.80;4.50;;;;;;;9.51;85.21;99892.22;5085172;28;20713;-76
2021/05/27 00:28:19;;;;;;;4.13;3.93;;;;;;;9.47;85.08;99891.44;5084661;28;20210;-75
2021/05/27 00:30:46;;;;;;;4.23;3.93;;;;;;;9.48;85.41;99887.94;5085541;28;20299;-76
2021/05/27 00:33:12;;;;;;;4.70;4.30;;;;;;;9.47;85.21;99893.19;5084319;28;20227;-76
2021/05/27 00:35:38;;;;;;;4.17;3.87;;;;;;;9.44;85.72;99901.09;5084911;28;20249;-76
2021/05/27 00:38:04;;;;;;;3.70;3.50;;;;;;;9.37;85.26;99896.91;5083996;28;20241;-76
2021/05/27 00:40:29;;;;;;;4.43;4.13;;;;;;;9.43;84.92;99902.81;5084810;28;20259;-75
2021/05/27 00:42:55;;;;;;;3.60;3.40;;;;;;;9.42;85.55;99903.72;5084948;28;20384;-76
2021/05/27 00:45:21;;;;;;;4.13;3.83;;;;;;;9.39;85.48;99906.38;5084105;28;20200;-76
2021/05/27 00:47:48;;;;;;;3.97;3.60;;;;;;;9.51;85.59;99900.03;5084386;28;20224;-76
2021/05/27 00:50:21;;;;;;;3.63;3.33;;;;;;;9.45;84.98;99901.03;5084247;28;20267;-75
2021/05/27 00:52:47;;;;;;;3.10;2.90;;;;;;;9.40;84.56;99909.88;5083917;28;20228;-75
2021/05/27 00:55:14;;;;;;;3.50;3.20;;;;;;;9.47;84.58;99909.66;5084661;28;20225;-76
2021/05/27 00:57:40;;;;;;;2.97;2.70;;;;;;;9.57;84.03;99914.66;5084326;28;20685;-77
2021/05/27 01:00:10;;;;;;;3.07;2.87;;;;;;;9.57;84.01;99905.09;5084654;28;20361;-74
2021/05/27 01:02:35;;;;;;;2.60;2.40;;;;;;;9.61;84.26;99911.09;5083593;28;20214;-75
2021/05/27 01:05:04;;;;;;;2.30;2.10;;;;;;;9.47;83.58;99916.63;5084326;28;20637;-75
2021/05/27 01:07:30;;;;;;;2.73;2.53;;;;;;;9.52;83.35;99912.19;5084796;28;20266;-76
2021/05/27 01:09:55;;;;;;;2.00;1.90;;;;;;;9.47;83.22;99911.41;5083840;28;20224;-75
2021/05/27 01:12:21;;;;;;;2.50;2.30;;;;;;;9.48;83.32;99915.75;5084402;28;20194;-76
2021/05/27 01:17:31;;;;;;;3.00;2.80;;;;;;;9.56;83.14;99921.63;5083996;28;20343;-75
2021/05/27 01:19:57;;;;;;;2.37;2.27;;;;;;;9.62;83.42;99931.06;5083753;28;20734;-76
2021/05/27 01:22:25;;;;;;;2.77;2.57;;;;;;;9.65;83.50;99934.47;5083195;28;20211;-75
2021/05/27 01:24:51;;;;;;;3.07;2.87;;;;;;;9.65;82.81;99934.47;5083787;28;20214;-76
2021/05/27 01:27:17;;;;;;;2.80;2.70;;;;;;;9.73;82.65;99921.22;5082504;28;20234;-76
2021/05/27 01:29:43;;;;;;;2.30;2.20;;;;;;;9.77;82.88;99928.06;5083895;28;20337;-75
2021/05/27 01:32:09;;;;;;;2.73;2.53;;;;;;;9.79;82.80;99921.09;5084035;28;20207;-76
2021/05/27 01:34:35;;;;;;;2.37;2.17;;;;;;;9.85;82.34;99918.34;5083170;28;20669;-76
2021/05/27 01:37:01;;;;;;;3.00;2.80;;;;;;;9.89;82.09;99919.97;5083607;28;20202;-75
2021/05/27 01:39:28;;;;;;;2.50;2.40;;;;;;;9.83;82.38;99929.69;5083424;28;20278;-76
2021/05/27 01:41:54;;;;;;;2.90;2.80;;;;;;;9.93;82.28;99925.97;5084404;28;20221;-76
2021/05/27 01:44:20;;;;;;;2.87;2.67;;;;;;;9.92;82.25;99926.88;5083508;28;20589;-76
2021/05/27 01:46:45;;;;;;;3.20;3.00;;;;;;;9.91;81.98;99926.00;5083413;28;20279;-75
2021/05/27 01:49:12;;;;;;;2.57;2.47;;;;;;;9.96;82.33;99925.03;5082244;28;20366;-76
2021/05/27 01:51:38;;;;;;;3.73;3.53;;;;;;;9.87;82.80;99927.00;5083288;28;20582;-76
2021/05/27 01:54:04;;;;;;;3.53;3.23;;;;;;;9.90;82.66;99932.09;5082964;28;20196;-76
2021/05/27 01:56:31;;;;;;;4.07;3.80;;;;;;;9.65;83.54;99929.25;5083062;28;20206;-75
2021/05/27 01:59:02;;;;;;;3.70;3.50;;;;;;;9.74;83.86;99922.94;5083552;28;20233;-76
2021/05/27 02:01:28;;;;;;;4.10;3.80;;;;;;;9.82;83.80;99930.59;5083094;28;20612;-76
2021/05/27 02:03:54;;;;;;;3.50;3.30;;;;;;;9.88;83.10;99926.06;5082891;28;20204;-76
2021/05/27 02:06:20;;;;;;;3.90;3.70;;;;;;;9.93;82.82;99933.81;5082869;28;20208;-76
2021/05/27 02:11:26;;;;;;;3.07;2.87;;;;;;;10.01;82.50;99937.06;5082538;28;20291;-76
2021/05/27 02:13:53;;;;;;;3.20;3.00;;;;;;;10.07;82.61;99928.25;5082716;28;20214;-76
2021/05/27 02:16:18;;;;;;;3.80;3.60;;;;;;;10.03;82.54;99927.47;5082721;28;20236;-75
2021/05/27 02:18:44;;;;;;;3.70;3.50;;;;;;;10.07;82.11;99928.25;5082828;28;20292;-76
2021/05/27 02:21:10;;;;;;;3.83;3.53;;;;;;;10.08;82.48;99928.19;5082616;28;20293;-75
2021/05/27 02:23:36;;;;;;;4.03;3.80;;;;;;;10.03;82.65;99932.69;5082598;28;20292;-76
2021/05/27 02:26:02;;;;;;;3.60;3.40;;;;;;;10.01;82.65;99936.19;5082773;28;20204;-76
2021/05/27 02:28:28;;;;;;;4.00;3.70;;;;;;;9.82;83.95;99934.03;5082650;28;20227;-75
2021/05/27 02:30:55;;;;;;;4.10;3.83;;;;;;;9.80;84.24;99928.00;5082970;28;20576;-76
2021/05/27 02:33:20;;;;;;;5.50;3.50;;;;;;;9.80;84.24;99929.78;5081756;28;20204;-76
2021/05/27 02:35:46;;;;;;;3.17;2.97;;;;;;;9.83;83.99;99932.28;5082670;28;20254;-75
2021/05/27 02:38:12;;;;;;;3.00;2.80;;;;;;;9.79;83.86;99931.53;5082079;28;20212;-76
2021/05/27 02:40:38;;;;;;;2.87;2.67;;;;;;;9.68;84.01;99942.19;5082758;28;20277;-76
2021/05/27 02:43:04;;;;;;;3.10;2.80;;;;;;;9.65;84.35;99939.69;5082520;28;20199;-77
2021/05/27 02:45:30;;;;;;;2.67;2.53;;;;;;;9.61;83.65;99937.16;5082170;28;20206;-77
2021/05/27 02:47:56;;;;;;;2.90;2.70;;;;;;;9.73;83.80;99932.53;5081352;28;20704;-76
2021/05/27 02:50:22;;;;;;;2.67;2.50;;;;;;;9.77;83.59;99935.03;5081948;28;20603;-76
2021/05/27 02:52:48;;;;;;;2.20;2.10;;;;;;;9.81;83.04;99941.91;5082475;28;20236;-76
2021/05/27 02:55:14;;;;;;;2.10;2.00;;;;;;;9.82;83.06;99941.88;5082637;28;20207;-76
2021/05/27 02:57:40;;;;;;;1.80;1.70;;;;;;;9.88;82.40;99948.69;5081775;28;20198;-76
2021/05/27 03:00:07;;;;;;;2.17;2.00;;;;;;;9.82;82.58;99941.88;5082485;28;20331;-76
2021/05/27 03:02:34;;;;;;;1.60;1.50;;;;;;;9.76;82.03;99946.38;5081809;28;20713;-77
2021/05/27 03:05:01;;;;;;;1.80;1.70;;;;;;;9.68;82.46;99944.81;5082033;28;20246;-77
2021/05/27 03:07:27;;;;;;;1.77;1.50;;;;;;;9.78;82.46;99942.84;5081658;28;20694;-76
2021/05/27 03:09:52;;;;;;;1.63;1.53;;;;;;;9.74;82.10;99951.63;5081890;28;20308;-77
2021/05/27 03:12:19;;;;;;;1.60;1.50;;;;;;;9.66;82.67;99945.72;5082425;28;20198;-76
2021/05/27 03:14:44;;;;;;;1.63;1.53;;;;;;;9.67;82.97;99947.44;5081743;28;20260;-75
2021/05/27 03:17:10;;;;;;;1.93;1.30;;;;;;;9.65;82.53;99954.44;5082092;28;20899;-76
2021/05/27 03:19:36;;;;;;;1.67;1.57;;;;;;;9.54;83.07;99950.31;5081403;28;20812;-76
2021/05/27 03:22:03;;;;;;;1.53;1.43;;;;;;;9.62;83.07;99946.69;5081708;28;20292;-77
2021/05/27 03:24:29;;;;;;;1.67;1.57;;;;;;;9.70;82.65;99958.66;5081419;28;20239;-75
2021/05/27 03:26:54;;;;;;;1.63;1.40;;;;;;;9.72;81.75;99951.66;5082087;28;20350;-76
2021/05/27 03:29:20;;;;;;;1.20;1.20;;;;;;;9.66;81.88;99943.97;5082358;28;20237;-76
2021/05/27 03:31:46;;;;;;;1.80;1.10;;;;;;;9.60;82.27;99951.09;5082311;28;20209;-76
2021/05/27 03:34:12;;;;;;;1.00;0.90;;;;;;;9.69;81.80;99953.47;5081186;28;20205;-77
2021/05/27 03:36:38;;;;;;;0.90;0.90;;;;;;;9.61;81.42;99963.22;5081844;28;20682;-76
2021/05/27 03:39:05;;;;;;;3.13;0.83;;;;;;;9.61;82.09;99958.84;5081819;28;20226;-76
2021/05/27 03:41:31;;;;;;;0.97;0.97;;;;;;;9.63;81.87;99964.03;5082053;28;20248;-76
2021/05/27 03:43:57;;;;;;;0.83;0.83;;;;;;;9.52;81.94;99965.13;5081298;28;20201;-76
2021/05/27 03:46:23;;;;;;;0.60;0.60;;;;;;;9.54;81.08;99968.56;5081681;28;21305;-75
2021/05/27 03:48:49;;;;;;;0.70;0.70;;;;;;;9.50;80.67;99964.31;5082043;28;20224;-76
2021/05/27 03:51:15;;;;;;;0.90;0.73;;;;;;;9.32;81.27;99973.38;5085699;28;20233;-76
2021/05/27 03:53:41;;;;;;;0.70;0.70;;;;;;;9.39;81.11;99973.25;5085441;28;20256;-78
2021/05/27 03:56:08;;;;;;;0.87;0.50;;;;;;;9.45;81.31;99973.13;5085639;28;20204;-78
2021/05/27 04:01:18;;;;;;;0.60;0.60;;;;;;;9.20;81.46;99973.66;5085520;28;20686;-77
2021/05/27 04:09:12;;;;;;;0.50;0.50;;;;;;;9.12;81.84;99972.97;5085492;28;20716;-78
2021/05/27 04:11:39;;;;;;;0.40;0.40;;;;;;;9.19;82.13;99966.72;5085309;28;21004;-76
2021/05/27 04:14:05;;;;;;;0.47;0.40;;;;;;;9.16;82.01;99966.81;5085230;28;20246;-78
2021/05/27 04:16:31;;;;;;;0.50;0.50;;;;;;;9.33;82.46;99967.28;5085415;28;20207;-77
2021/05/27 04:18:57;;;;;;;0.60;0.60;;;;;;;9.40;81.75;99972.38;5084979;28;20205;-76
2021/05/27 04:21:23;;;;;;;1.10;0.50;;;;;;;9.48;82.15;99973.06;5085087;28;20225;-77
2021/05/27 04:23:48;;;;;;;0.67;0.67;;;;;;;9.41;81.96;99974.94;5085136;28;20369;-76
2021/05/27 04:26:16;;;;;;;0.50;0.50;;;;;;;9.44;82.11;99982.69;5085511;28;20206;-77
2021/05/27 04:28:45;;;;;;;0.53;0.53;;;;;;;9.42;82.29;99981.03;5085118;28;20254;-78
2021/05/27 04:31:13;;;;;;;0.97;0.70;;;;;;;9.43;82.38;99991.38;5084979;28;20207;-76
2021/05/27 04:33:40;;;;;;;0.50;0.50;;;;;;;9.50;82.32;99995.59;5083781;28;20703;-76
2021/05/27 04:36:06;;;;;;;1.43;0.90;;;;;;;9.51;82.37;99989.50;5085145;28;20450;-75
2021/05/27 04:38:33;;;;;;;0.50;0.50;;;;;;;9.64;82.36;100002.25;5084323;28;20644;-76
2021/05/27 04:40:59;;;;;;;0.57;0.57;;;;;;;9.56;82.09;99993.75;5084342;28;20220;-76
2021/05/27 04:43:25;;;;;;;0.60;0.60;;;;;;;9.53;82.75;99999.84;5084379;28;20241;-76
2021/05/27 04:45:51;;;;;;;0.67;0.67;;;;;;;9.57;82.55;99998.03;5084902;28;20215;-76
2021/05/27 04:48:17;;;;;;;0.70;0.70;;;;;;;9.59;83.00;100004.09;5083715;28;20322;-75
2021/05/27 04:50:46;;;;;;;0.67;0.67;;;;;;;9.59;83.01;99997.13;5084668;28;20289;-77
2021/05/27 04:53:12;;;;;;;0.50;0.50;;;;;;;9.67;82.84;100003.03;5084334;28;20340;-77
2021/05/27 04:55:38;;;;;;;0.73;0.67;;;;;;;9.51;83.54;100007.72;5084512;28;20234;-76
2021/05/27 04:58:04;;;;;;;0.60;0.60;;;;;;;9.47;84.11;100003.44;5083974;28;20260;-75
2021/05/27 05:00:31;;;;;;;0.80;0.70;;;;;;;9.65;83.58;100004.81;5084664;28;20220;-76
2021/05/27 05:02:58;;;;;;;0.60;0.60;;;;;;;9.68;83.61;100009.09;5083969;28;20458;-76
2021/05/27 05:05:26;;;;;;;0.70;0.70;;;;;;;9.86;83.09;100000.00;5084105;28;20559;-76
2021/05/27 05:07:52;;;;;;;0.50;0.50;;;;;;;9.86;83.42;100006.06;5084365;28;20233;-76
2021/05/27 05:10:20;;;;;;;0.73;0.73;;;;;;;10.06;83.04;100005.59;5084084;28;20651;-75
2021/05/27 05:12:46;;;;;;;0.50;0.50;;;;;;;10.20;82.68;99997.44;5084194;28;20211;-76
2021/05/27 05:15:15;;;;;;;0.53;0.53;;;;;;;10.28;82.34;100005.94;5084435;28;20228;-77
2021/05/27 05:17:41;;;;;;;0.60;0.60;;;;;;;10.28;82.24;100005.09;5084441;28;20203;-77
2021/05/27 05:20:09;;;;;;;1.53;0.70;;;;;;;10.12;82.84;100015.88;5083450;28;20222;-76
2021/05/27 05:22:35;;;;;;;0.70;0.70;;;;;;;10.23;82.23;100013.03;5083373;28;20648;-75
2021/05/27 05:25:01;;;;;;;0.97;0.77;;;;;;;10.26;82.13;100007.72;5084034;28;20627;-77
2021/05/27 05:27:27;;;;;;;1.37;0.90;;;;;;;10.21;82.79;100009.59;5083374;28;20772;-76
2021/05/27 05:29:53;;;;;;;0.77;0.77;;;;;;;10.25;82.17;100013.84;5083332;28;20233;-76
2021/05/27 05:32:19;;;;;;;0.67;0.63;;;;;;;10.31;82.62;100012.88;5083199;28;21021;-77
2021/05/27 05:34:45;;;;;;;0.80;0.80;;;;;;;10.47;82.47;100008.97;5083033;28;20587;-77
2021/05/27 05:37:11;;;;;;;1.00;1.00;;;;;;;10.64;81.45;100010.28;5083435;28;20307;-77
2021/05/27 05:39:37;;;;;;;1.13;0.93;;;;;;;10.82;80.92;100007.22;5083411;28;20265;-76
2021/05/27 05:42:04;;;;;;;1.17;0.90;;;;;;;10.93;80.22;100015.59;5081615;28;20200;-75
2021/05/27 05:44:30;;;;;;;1.03;0.80;;;;;;;10.80;79.93;100015.97;5081679;28;20206;-76
2021/05/27 05:46:55;;;;;;;0.83;0.83;;;;;;;10.65;80.15;100017.25;5083330;28;20601;-76
2021/05/27 05:49:21;;;;;;;0.90;0.90;;;;;;;10.38;81.57;100022.25;5082108;28;20310;-76
2021/05/27 05:51:47;;;;;;;0.80;0.80;;;;;;;10.27;82.10;100025.09;5083189;28;20213;-76
2021/05/27 05:54:14;;;;;;;0.80;0.80;;;;;;;10.32;82.82;100025.88;5081965;28;20204;-76
2021/05/27 05:56:40;;;;;;;1.07;1.07;;;;;;;10.53;81.90;100024.47;5082516;28;20703;-75
2021/05/27 05:59:06;;;;;;;1.00;1.00;;;;;;;10.60;81.55;100025.16;5082912;28;20241;-76
2021/05/27 06:01:31;;;;;;;1.23;1.23;;;;;;;10.48;82.23;100028.94;5083039;28;20213;-75
2021/05/27 06:03:57;;;;;;;1.00;1.00;;;;;;;10.44;81.37;100026.47;5082310;28;20623;-77
2021/05/27 06:06:23;;;;;;;1.17;1.00;;;;;;;10.29;80.47;100025.06;5082613;28;20224;-77
2021/05/27 06:08:49;;;;;;;1.10;1.10;;;;;;;10.29;80.41;100028.53;5082396;28;20234;-77
2021/05/27 06:11:16;;;;;;;2.67;1.20;;;;;;;10.28;80.80;100026.81;5083169;28;20297;-76
2021/05/27 06:13:42;;;;;;;1.20;1.10;;;;;;;10.23;80.83;100030.44;5082500;28;20217;-77
2021/05/27 06:16:08;;;;;;;1.37;1.27;;;;;;;10.27;80.84;100034.69;5083206;28;20233;-76
2021/05/27 06:18:34;;;;;;;1.50;1.40;;;;;;;10.15;80.84;100038.44;5083390;28;20229;-76
2021/05/27 06:21:00;;;;;;;1.40;1.30;;;;;;;10.18;81.15;100038.34;5082249;28;20620;-76
2021/05/27 06:23:26;;;;;;;1.10;1.10;;;;;;;10.33;81.11;100031.97;5082491;28;20217;-77
2021/05/27 06:25:53;;;;;;;1.50;1.40;;;;;;;10.41;81.22;100037.84;5082440;28;20196;-76
2021/05/27 06:28:19;;;;;;;2.70;1.40;;;;;;;10.42;81.36;100046.53;5082802;28;20228;-74
2021/05/27 06:30:45;;;;;;;2.20;1.23;;;;;;;10.51;81.02;100043.69;5083079;28;20237;-77
2021/05/27 06:33:11;;;;;;;1.37;1.33;;;;;;;10.57;81.29;100040.91;5081566;28;20227;-76
2021/05/27 06:35:37;;;;;;;1.40;1.37;;;;;;;10.47;82.04;100048.13;5083133;28;20276;-75
2021/05/27 06:38:03;;;;;;;1.37;1.27;;;;;;;10.39;82.74;100055.28;5081374;28;20205;-75
2021/05/27 06:40:30;;;;;;;1.50;1.40;;;;;;;10.29;83.26;100053.78;5082000;28;20634;-74
2021/05/27 06:42:56;;;;;;;1.33;1.30;;;;;;;10.25;83.85;100060.81;5082133;28;20701;-76
2021/05/27 06:45:24;;;;;;;1.23;1.20;;;;;;;10.41;83.91;100066.53;5082430;28;20661;-75
2021/05/27 06:47:50;;;;;;;1.20;1.20;;;;;;;10.38;84.32;100058.78;5079955;28;20657;-75
2021/05/27 06:50:31;;;;;;;1.20;1.00;;;;;;;10.37;84.68;100058.84;5081231;28;20271;-76
2021/05/27 06:52:58;;;;;;;1.37;0.97;;;;;;;10.28;84.86;100065.94;5081327;28;20265;-75
2021/05/27 06:55:24;;;;;;;1.30;1.23;;;;;;;10.23;85.60;100075.63;5081896;28;20304;-76
2021/05/27 06:57:50;;;;;;;1.20;1.10;;;;;;;10.08;85.64;100075.97;5082099;28;20293;-75
2021/05/27 07:00:19;;;;;;;1.30;1.20;;;;;;;10.10;86.02;100076.81;5082672;28;20238;-75
2021/05/27 07:02:46;;;;;;;0.80;0.80;;;;;;;10.00;86.47;100080.53;5081372;28;20199;-75
2021/05/27 07:05:12;;;;;;;1.00;1.00;;;;;;;10.03;86.44;100077.81;5082572;28;20258;-75
2021/05/27 07:07:38;;;;;;;0.90;0.90;;;;;;;9.98;86.19;100079.69;5082199;28;20230;-77
2021/05/27 07:10:05;;;;;;;2.07;1.10;;;;;;;9.96;86.94;100074.50;5082328;28;20238;-74
2021/05/27 07:12:32;;;;;;;1.63;1.00;;;;;;;10.03;87.26;100085.66;5082332;28;20246;-75
2021/05/27 07:14:58;;;;;;;1.00;1.00;;;;;;;9.88;87.63;100082.50;5081712;28;20281;-76
2021/05/27 07:17:24;;;;;;;1.17;1.17;;;;;;;9.79;88.80;100093.13;5081648;28;20224;-76
2021/05/27 07:19:52;;;;;;;1.23;1.13;;;;;;;9.75;89.08;100078.44;5083178;28;20225;-76
2021/05/27 07:22:18;;;;;;;1.03;1.03;;;;;;;9.72;88.89;100083.72;5082229;28;20233;-76
2021/05/27 07:24:46;;;;;;;1.70;1.23;;;;;;;9.80;88.79;100096.59;5085123;28;20233;-75
2021/05/27 07:27:12;;;;;;;1.10;1.10;;;;;;;9.83;88.29;100088.69;5087067;28;20315;-76
2021/05/27 07:29:38;;;;;;;1.37;1.27;;;;;;;9.89;88.08;100098.97;5086914;28;20863;-76
2021/05/27 07:32:05;;;;;;;2.27;1.63;;;;;;;9.98;88.29;100100.56;5086565;28;20203;-77
2021/05/27 07:34:31;;;;;;;1.10;1.10;;;;;;;10.08;87.37;100102.91;5086114;28;20210;-76
2021/05/27 07:36:58;;;;;;;1.40;1.30;;;;;;;10.04;87.32;100101.25;5086464;28;20245;-76
2021/05/27 07:39:24;;;;;;;1.10;1.07;;;;;;;10.16;86.83;100089.69;5085676;28;20224;-76
2021/05/27 07:41:51;;;;;;;0.90;0.90;;;;;;;10.14;86.50;100105.38;5087273;28;20261;-76
2021/05/27 07:44:17;;;;;;;1.10;1.00;;;;;;;10.20;86.54;100103.53;5085945;28;20231;-76
2021/05/27 07:46:43;;;;;;;1.30;1.20;;;;;;;10.20;87.60;100107.00;5086462;28;20210;-74
2021/05/27 07:49:08;;;;;;;1.00;0.90;;;;;;;10.01;87.10;100108.28;5086476;28;20237;-76
2021/05/27 07:51:34;;;;;;;2.07;1.07;;;;;;;9.91;87.94;100116.34;5086210;28;20791;-75
2021/05/27 07:54:01;;;;;;;1.00;1.00;;;;;;;9.77;87.97;100109.69;5085935;28;20226;-75
2021/05/27 07:56:27;;;;;;;0.83;0.83;;;;;;;9.74;88.72;100119.28;5086314;28;20243;-75
2021/05/27 07:58:54;;;;;;;1.03;1.00;;;;;;;9.74;89.11;100119.28;5086559;28;20257;-75
2021/05/27 08:01:19;;;;;;;1.10;1.10;;;;;;;9.63;88.61;100118.66;5085869;28;20215;-75
2021/05/27 08:03:45;;;;;;;1.20;1.10;;;;;;;9.68;89.27;100123.78;5085082;28;20209;-75
2021/05/27 08:06:11;;;;;;;1.13;1.07;;;;;;;9.55;89.26;100117.94;5085911;28;21204;-74
2021/05/27 08:08:37;;;;;;;1.03;0.97;;;;;;;9.59;89.39;100127.41;5085633;28;20564;-74
2021/05/27 08:11:04;;;;;;;1.60;1.10;;;;;;;9.59;89.02;100126.56;5085467;28;20228;-75
2021/05/27 08:13:29;;;;;;;0.97;0.97;;;;;;;9.45;88.39;100122.47;5085920;28;20849;-76
2021/05/27 08:15:55;;;;;;;0.90;0.90;;;;;;;9.48;88.47;100126.78;5086091;28;20678;-77
2021/05/27 08:18:21;;;;;;;1.20;1.10;;;;;;;9.50;88.34;100130.22;5085253;28;20222;-74
2021/05/27 08:20:47;;;;;;;0.90;0.90;;;;;;;9.39;88.01;100133.00;5085262;28;20276;-76
2021/05/27 08:23:13;;;;;;;0.80;0.80;;;;;;;9.42;88.30;100139.94;5084839;28;20674;-76
2021/05/27 08:25:39;;;;;;;1.10;1.00;;;;;;;9.48;88.57;100132.00;5084964;28;20738;-77
2021/05/27 08:28:06;;;;;;;0.97;0.70;;;;;;;9.56;87.85;100131.84;5085853;28;20273;-75
2021/05/27 08:30:32;;;;;;;1.63;1.00;;;;;;;9.57;87.31;100130.94;5085422;28;20229;-76
2021/05/27 08:32:57;;;;;;;3.43;1.03;;;;;;;9.60;87.62;100130.88;5084963;28;20296;-77
2021/05/27 08:35:23;;;;;;;1.27;1.00;;;;;;;9.75;87.30;100135.78;5084825;28;20263;-75
2021/05/27 08:37:49;;;;;;;0.87;0.80;;;;;;;9.80;87.15;100138.31;5084510;28;20203;-76
2021/05/27 08:40:15;;;;;;;1.73;0.70;;;;;;;9.90;86.54;100135.47;5084922;28;20802;-77
2021/05/27 08:42:42;;;;;;;0.80;0.80;;;;;;;10.10;86.07;100140.25;5084546;28;20228;-75
2021/05/27 08:45:10;;;;;;;0.73;0.73;;;;;;;10.14;84.74;100141.03;5084790;28;20307;-76
2021/05/27 08:47:37;;;;;;;0.60;0.60;;;;;;;10.13;85.01;100134.97;5084996;28;20220;-77
2021/05/27 08:50:04;;;;;;;0.60;0.60;;;;;;;10.20;84.96;100138.28;5084633;28;20224;-77
2021/05/27 08:52:30;;;;;;;0.70;0.70;;;;;;;10.26;84.72;100143.38;5084314;28;20229;-75
2021/05/27 08:54:57;;;;;;;0.60;0.60;;;;;;;10.19;85.19;100148.75;5084521;28;20201;-76
2021/05/27 08:57:23;;;;;;;0.63;0.50;;;;;;;10.21;84.69;100157.41;5085234;28;20232;-77
2021/05/27 08:59:48;;;;;;;0.70;0.70;;;;;;;10.15;85.20;100145.38;5085027;28;20224;-74
2021/05/27 09:02:16;;;;;;;0.60;0.60;;;;;;;10.13;85.49;100157.59;5084401;28;20201;-75
2021/05/27 09:04:42;;;;;;;0.60;0.50;;;;;;;10.14;86.03;100147.09;5083831;28;20209;-75
2021/05/27 09:07:11;;;;;;;0.80;0.77;;;;;;;10.32;86.11;100145.03;5083999;28;20778;-74
2021/05/27 09:09:51;;;;;;;0.60;0.50;;;;;;;10.16;85.38;100146.22;5084061;28;20223;-74
2021/05/27 09:12:28;;;;;;;0.93;0.63;;;;;;;10.21;86.10;100155.66;5084756;28;20237;-75
2021/05/27 09:14:55;;;;;;;0.70;0.70;;;;;;;10.24;85.81;100158.19;5083558;28;20213;-75
2021/05/27 09:17:22;;;;;;;3.83;1.60;;;;;;;10.26;84.90;100161.63;5084553;28;20228;-76
2021/05/27 09:20:12;;;;;;;0.87;0.73;;;;;;;10.16;85.13;100161.88;5083360;28;20217;-74
2021/05/27 09:22:39;;;;;;;3.27;1.27;;;;;;;10.16;85.64;100167.09;5084407;28;20210;-74
2021/05/27 09:25:06;;;;;;;0.80;0.80;;;;;;;9.99;85.50;100170.94;5083685;28;20233;-74
2021/05/27 09:27:45;;;;;;;1.03;0.80;;;;;;;10.13;85.48;100174.09;5083995;28;20328;-75
2021/05/27 09:30:12;;;;;;;0.70;0.70;;;;;;;10.17;84.87;100185.31;5083750;28;20229;-74
2021/05/27 09:32:40;;;;;;;1.10;0.80;;;;;;;10.04;84.42;100184.72;5083773;28;20228;-74
2021/05/27 09:35:10;;;;;;;8.80;2.03;;;;;;;9.97;85.05;100188.34;5084344;28;20294;-75
2021/05/27 09:37:35;;;;;;;0.87;0.87;;;;;;;10.09;86.08;100197.69;5083404;28;20200;-75
2021/05/27 09:40:05;;;;;;;0.90;0.90;;;;;;;10.00;85.54;100200.47;5083897;28;20286;-74
2021/05/27 09:42:48;;;;;;;1.20;0.77;;;;;;;9.97;85.72;100188.34;5083038;28;20352;-76
2021/05/27 09:45:15;;;;;;;1.07;1.03;;;;;;;9.99;85.50;100193.50;5083955;28;20626;-76
2021/05/27 09:47:43;;;;;;;1.60;1.00;;;;;;;10.05;85.58;100202.09;5082884;28;20709;-75
2021/05/27 09:50:10;;;;;;;1.33;1.23;;;;;;;10.06;85.67;100208.16;5083332;28;20222;-77
2021/05/27 09:52:40;;;;;;;11.60;1.40;;;;;;;10.08;85.49;100207.22;5083632;28;20269;-75
2021/05/27 09:55:10;;;;;;;3.23;1.40;;;;;;;10.13;85.83;100209.75;5082948;28;20215;-74
2021/05/27 09:57:36;;;;;;;1.57;1.20;;;;;;;9.88;86.38;100209.38;5084028;28;20197;-74
2021/05/27 10:00:05;;;;;;;1.30;1.20;;;;;;;9.83;87.30;100217.31;5083639;28;20658;-75
2021/05/27 10:02:34;;;;;;;2.37;1.00;;;;;;;9.84;87.67;100215.56;5082691;28;20204;-75
2021/05/27 10:05:09;;;;;;;1.23;1.20;;;;;;;9.92;87.72;100217.09;5082823;28;20214;-78
2021/05/27 10:07:37;;;;;;;1.20;1.00;;;;;;;9.89;86.97;100216.31;5083038;28;20746;-75
2021/05/27 10:10:06;;;;;;;1.20;1.10;;;;;;;10.03;86.94;100214.31;5082906;28;20444;-76
2021/05/27 10:12:37;;;;;;;1.23;1.13;;;;;;;10.09;86.33;100222.00;5083298;28;20257;-76
2021/05/27 10:15:05;;;;;;;1.13;1.10;;;;;;;10.12;86.98;100219.31;5082546;28;20666;-76
2021/05/27 10:17:31;;;;;;;1.30;1.17;;;;;;;10.22;86.59;100219.97;5083721;28;20208;-75
2021/05/27 10:19:57;;;;;;;1.27;1.10;;;;;;;10.23;85.93;100218.25;5082790;28;20268;-75
2021/05/27 10:22:23;;;;;;;1.40;1.40;;;;;;;10.23;85.77;100224.31;5083678;28;20200;-76
2021/05/27 10:24:49;;;;;;;1.07;0.97;;;;;;;10.13;86.14;100225.41;5083713;28;20265;-76
2021/05/27 10:27:15;;;;;;;1.27;1.13;;;;;;;10.15;86.70;100228.84;5083410;28;20715;-77
2021/05/27 10:29:41;;;;;;;3.00;1.10;;;;;;;10.38;86.18;100232.75;5083614;28;20258;-78
2021/05/27 10:32:09;;;;;;;1.60;1.30;;;;;;;10.38;86.15;100230.97;5084432;28;20200;-77
2021/05/27 10:34:44;;;;;;;1.40;1.30;;;;;;;10.24;86.58;100230.38;5084372;28;20206;-77
2021/05/27 10:37:10;;;;;;;1.53;1.30;;;;;;;10.33;87.45;100231.09;5083200;28;20228;-77
2021/05/27 10:39:37;;;;;;;1.17;1.10;;;;;;;10.38;88.12;100237.94;5084464;28;20638;-78
2021/05/27 10:42:03;;;;;;;1.20;1.10;;;;;;;10.47;88.09;100233.41;5082945;28;20209;-78
2021/05/27 10:44:29;;;;;;;1.10;0.93;;;;;;;10.47;86.76;100241.22;5082484;28;20734;-77
2021/05/27 10:47:19;;;;;;;1.40;1.20;;;;;;;10.45;85.96;100234.34;5083400;28;20243;-76
2021/05/27 10:49:53;;;;;;;1.30;1.00;;;;;;;10.49;85.82;100238.59;5083591;28;20230;-78
2021/05/27 10:52:41;;;;;;;0.87;0.87;;;;;;;10.58;85.95;100243.59;5083327;28;20200;-77
2021/05/27 10:55:44;;;;;;;0.80;0.80;;;;;;;10.48;86.14;100242.06;5083229;28;20220;-79
2021/05/27 10:58:09;;;;;;;1.00;1.00;;;;;;;10.36;85.92;100244.97;5083670;28;20239;-77
2021/05/27 11:00:50;;;;;;;1.03;0.90;;;;;;;10.39;85.66;100258.81;5084963;28;20230;-78
2021/05/27 11:03:42;;;;;;;0.90;0.90;;;;;;;10.48;85.66;100258.59;5082960;28;20210;-78
2021/05/27 11:06:25;;;;;;;0.90;0.90;;;;;;;10.57;85.68;100254.09;5084421;28;20266;-78
2021/05/27 11:09:28;;;;;;;0.70;0.70;;;;;;;10.70;84.79;100256.41;5082988;28;20239;-77
2021/05/27 11:11:58;;;;;;;1.00;1.00;;;;;;;10.77;84.11;100249.28;5083788;28;20605;-77
2021/05/27 11:14:27;;;;;;;0.80;0.80;;;;;;;10.91;82.62;100262.00;5081828;28;20222;-76
2021/05/27 11:17:19;;;;;;;0.60;0.60;;;;;;;11.02;82.32;100253.91;5083082;28;20238;-75
2021/05/27 11:19:51;;;;;;;0.70;0.50;;;;;;;11.33;81.20;100262.72;5081882;28;20714;-77
2021/05/27 11:23:00;;;;;;;0.70;0.70;;;;;;;11.51;80.22;100261.38;5082673;28;20559;-77
2021/05/27 11:25:34;;;;;;;1.03;0.70;;;;;;;11.46;80.19;100257.19;5082170;28;20205;-75
2021/05/27 11:28:28;;;;;;;1.17;0.57;;;;;;;11.40;81.14;100260.81;5081822;28;20238;-75
2021/05/27 11:30:56;;;;;;;0.50;0.50;;;;;;;11.45;82.38;100256.31;5082385;28;20221;-76
2021/05/27 11:33:37;;;;;;;0.50;0.50;;;;;;;11.40;81.21;100262.59;5081837;28;20224;-74
2021/05/27 11:36:09;;;;;;;1.40;0.60;;;;;;;11.86;81.09;100266.59;5082396;28;20204;-75
2021/05/27 11:38:37;;;;;;;2.07;0.53;;;;;;;11.95;80.28;100266.38;5081767;28;20683;-75
2021/05/27 11:41:05;;;;;;;0.60;0.60;;;;;;;12.31;79.22;100256.66;5082839;28;20269;-74
2021/05/27 11:43:34;;;;;;;0.43;0.43;;;;;;;12.20;78.80;100256.09;5081319;28;20271;-76
2021/05/27 11:46:04;;;;;;;0.53;0.53;;;;;;;12.02;79.18;100273.16;5081984;28;20206;-76
2021/05/27 11:48:33;;;;;;;0.60;0.60;;;;;;;12.18;78.76;100268.34;5082528;28;20213;-76
2021/05/27 11:51:01;;;;;;;0.63;0.63;;;;;;;11.92;78.24;100277.78;5081587;28;20258;-77